Time;durP1;ratioP1;P1;durP2;ratioP2;P2;SDS_P1;SDS_P2;PMS_P1;PMS_P2;Temp;Humidity;BMP_temperature;BMP_pressure;BME280_temperature;BME280_humidity;BME280_pressure;Samples;Min_cycle;Max_cycle;Signal;HPM_P1;HPM_P2
2021/08/13 00:00:10;;;;;;;7.23;6.53;;;;;;;;;;5114757;28;20481;-72
2021/08/13 00:02:37;;;;;;;8.03;6.40;;;;;;;;;;5113843;28;20965;-72
2021/08/13 00:05:05;;;;;;;7.67;6.33;;;;;;;;;;5113519;28;20812;-72
2021/08/13 00:07:32;;;;;;;8.43;6.97;;;;;;;;;;5114372;28;20523;-72
2021/08/13 00:09:59;;;;;;;12.53;5.87;;;;;;;;;;5113422;28;20555;-72
2021/08/13 00:12:26;;;;;;;6.80;6.03;;;;;;;;;;5114102;28;20475;-72
2021/08/13 00:14:57;;;;;;;7.60;6.03;;;;;;;;;;5113391;28;20443;-72
2021/08/13 00:17:24;;;;;;;8.27;6.50;;;;;;;;;;5113982;28;20536;-72
2021/08/13 00:19:51;;;;;;;7.73;6.40;;;;;;;;;;5112274;28;20451;-72
2021/08/13 00:22:19;;;;;;;9.90;6.80;;;;;;;;;;5113891;28;20539;-71
2021/08/13 00:24:46;;;;;;;8.40;6.60;;;;;;;;;;5112882;28;20566;-71
2021/08/13 00:27:14;;;;;;;8.70;6.03;;;;;;;;;;5113575;28;20454;-72
2021/08/13 00:29:41;;;;;;;8.33;6.80;;;;;;;;;;5113464;28;20501;-72
2021/08/13 00:32:09;;;;;;;7.47;6.73;;;;;;;;;;5110990;28;20444;-73
2021/08/13 00:34:38;;;;;;;8.27;6.20;;;;;;;;;;5112754;28;20436;-73
2021/08/13 00:37:05;;;;;;;7.53;6.23;;;;;;;;;;5113310;28;20835;-73
2021/08/13 00:39:32;;;;;;;7.67;6.87;;;;;;;;;;5113955;28;20459;-73
2021/08/13 00:42:00;;;;;;;8.87;6.27;;;;;;;;;;5113352;28;20444;-72
2021/08/13 00:44:28;;;;;;;11.93;8.03;;;;;;;;;;5113711;28;20443;-73
2021/08/13 00:46:55;;;;;;;11.63;7.00;;;;;;;;;;5112508;28;20525;-73
2021/08/13 00:49:24;;;;;;;7.43;6.70;;;;;;;;;;5112954;28;20467;-72
2021/08/13 00:51:51;;;;;;;12.50;7.00;;;;;;;;;;5112982;28;20569;-73
2021/08/13 00:54:19;;;;;;;6.77;5.97;;;;;;;;;;5113313;28;20444;-72
2021/08/13 00:56:46;;;;;;;11.50;7.63;;;;;;;;;;5113037;28;20436;-73
2021/08/13 00:59:13;;;;;;;7.67;6.87;;;;;;;;;;5113465;28;20446;-72
2021/08/13 01:01:41;;;;;;;7.50;5.70;;;;;;;;;;5112812;28;20462;-73
2021/08/13 01:04:08;;;;;;;7.57;6.27;;;;;;;;;;5112284;28;20849;-72
2021/08/13 01:06:36;;;;;;;7.53;6.57;;;;;;;;;;5113041;28;20474;-73
2021/08/13 01:09:04;;;;;;;8.57;6.40;;;;;;;;;;5099006;28;20444;-72
2021/08/13 01:11:37;;;;;;;7.30;6.20;;;;;;;;;;5112935;28;20518;-72
2021/08/13 01:14:07;;;;;;;9.43;6.80;;;;;;;;;;5112691;28;20439;-72
2021/08/13 01:16:36;;;;;;;7.23;6.53;;;;;;;;;;5112462;28;20436;-72
2021/08/13 01:19:06;;;;;;;7.73;6.93;;;;;;;;;;5112145;28;20823;-72
2021/08/13 01:21:37;;;;;;;8.53;6.03;;;;;;;;;;5112552;28;20559;-71
2021/08/13 01:24:08;;;;;;;7.80;7.03;;;;;;;;;;5112365;28;20436;-72
2021/08/13 01:26:38;;;;;;;9.57;7.00;;;;;;;;;;5112579;28;20522;-72
2021/08/13 01:29:10;;;;;;;8.70;6.90;;;;;;;;;;5112466;28;20435;-72
2021/08/13 01:31:40;;;;;;;8.63;6.63;;;;;;;;;;5112266;28;20459;-71
2021/08/13 01:34:11;;;;;;;9.10;6.87;;;;;;;;;;5111777;28;20478;-72
2021/08/13 01:36:38;;;;;;;7.90;6.37;;;;;;;;;;5113712;28;20436;-72
2021/08/13 01:39:06;;;;;;;8.63;6.10;;;;;;;;;;5112299;28;20530;-71
2021/08/13 01:41:33;;;;;;;7.27;6.57;;;;;;;;;;5112511;28;20530;-71
2021/08/13 01:44:01;;;;;;;8.30;7.00;;;;;;;;;;5111544;28;20543;-71
2021/08/13 01:46:29;;;;;;;7.23;6.53;;;;;;;;;;5112387;28;20446;-71
2021/08/13 01:48:57;;;;;;;9.00;6.70;;;;;;;;;;5111600;28;20443;-71
2021/08/13 01:51:26;;;;;;;7.70;6.90;;;;;;;;;;5112050;28;20473;-71
2021/08/13 01:53:53;;;;;;;12.23;6.80;;;;;;;;;;5111629;28;20454;-71
2021/08/13 01:56:22;;;;;;;8.33;6.90;;;;;;;;;;5111806;28;20820;-73
2021/08/13 01:58:50;;;;;;;7.97;7.03;;;;;;;;;;5112051;28;20974;-73
2021/08/13 02:01:17;;;;;;;9.17;7.50;;;;;;;;;;5111728;28;20493;-73
2021/08/13 02:03:44;;;;;;;8.03;6.80;;;;;;;;;;5111500;28;20989;-71
2021/08/13 02:06:12;;;;;;;9.50;7.27;;;;;;;;;;5111529;28;20518;-72
2021/08/13 02:08:41;;;;;;;6.93;6.20;;;;;;;;;;5111846;28;20497;-71
2021/08/13 02:11:08;;;;;;;7.50;6.70;;;;;;;;;;5111083;28;21014;-71
2021/08/13 02:13:37;;;;;;;8.17;6.90;;;;;;;;;;5112237;28;20471;-71
2021/08/13 02:16:07;;;;;;;10.97;6.80;;;;;;;;;;5111358;28;20509;-71
2021/08/13 02:18:35;;;;;;;6.90;6.20;;;;;;;;;;5111341;28;20436;-71
2021/08/13 02:21:06;;;;;;;8.70;7.07;;;;;;;;;;5110825;28;20467;-71
2021/08/13 02:23:33;;;;;;;7.07;5.90;;;;;;;;;;5112006;28;20471;-71
2021/08/13 02:26:02;;;;;;;7.60;6.50;;;;;;;;;;5111501;28;20440;-71
2021/08/13 02:28:29;;;;;;;8.47;6.30;;;;;;;;;;5111779;28;20522;-71
2021/08/13 02:30:56;;;;;;;7.27;6.13;;;;;;;;;;5110933;28;20563;-71
2021/08/13 02:33:23;;;;;;;7.67;6.47;;;;;;;;;;5111358;28;20443;-71
2021/08/13 02:35:52;;;;;;;9.17;7.50;;;;;;;;;;5111633;28;20454;-71
2021/08/13 02:38:21;;;;;;;8.70;7.00;;;;;;;;;;5111182;28;20440;-72
2021/08/13 02:40:52;;;;;;;8.20;7.00;;;;;;;;;;5111154;28;20778;-73
2021/08/13 02:43:22;;;;;;;8.10;6.90;;;;;;;;;;5113651;28;20427;-72
2021/08/13 02:45:51;;;;;;;7.70;6.43;;;;;;;;;;5118318;28;20932;-71
2021/08/13 02:48:19;;;;;;;7.50;6.77;;;;;;;;;;5117589;28;20445;-71
2021/08/13 02:50:47;;;;;;;9.47;6.97;;;;;;;;;;5118327;28;20551;-72
2021/08/13 02:53:16;;;;;;;6.50;5.80;;;;;;;;;;5117775;28;20846;-71
2021/08/13 02:55:46;;;;;;;8.17;6.53;;;;;;;;;;5118266;28;20501;-71
2021/08/13 02:58:17;;;;;;;7.40;6.50;;;;;;;;;;5117697;28;20990;-71
2021/08/13 03:00:46;;;;;;;7.50;6.63;;;;;;;;;;5117913;28;20459;-73
2021/08/13 03:03:13;;;;;;;8.80;6.63;;;;;;;;;;5117231;28;20539;-73
2021/08/13 03:05:43;;;;;;;9.97;7.30;;;;;;;;;;5118113;28;20443;-72
2021/08/13 03:08:10;;;;;;;7.70;6.87;;;;;;;;;;5117348;28;20440;-72
2021/08/13 03:10:39;;;;;;;9.70;6.73;;;;;;;;;;5117684;28;20471;-72
2021/08/13 03:13:06;;;;;;;10.00;7.90;;;;;;;;;;5114097;28;20538;-72
2021/08/13 03:15:34;;;;;;;8.80;6.83;;;;;;;;;;5117844;28;20442;-72
2021/08/13 03:18:02;;;;;;;9.30;6.77;;;;;;;;;;5116738;28;20999;-70
2021/08/13 03:20:30;;;;;;;8.80;7.10;;;;;;;;;;5117072;28;20582;-71
2021/08/13 03:22:57;;;;;;;9.17;7.33;;;;;;;;;;5117033;28;20527;-72
2021/08/13 03:25:24;;;;;;;10.70;7.07;;;;;;;;;;5117719;28;20439;-72
2021/08/13 03:27:52;;;;;;;7.83;7.03;;;;;;;;;;5117641;28;20859;-72
2021/08/13 03:30:20;;;;;;;7.30;6.60;;;;;;;;;;5117327;28;20796;-72
2021/08/13 03:32:48;;;;;;;7.50;6.23;;;;;;;;;;5117191;28;20445;-72
2021/08/13 03:35:17;;;;;;;8.80;7.00;;;;;;;;;;5117350;28;20518;-72
2021/08/13 03:37:45;;;;;;;7.47;6.33;;;;;;;;;;5117792;28;20439;-72
2021/08/13 03:40:12;;;;;;;8.97;6.83;;;;;;;;;;5117462;28;20443;-72
2021/08/13 03:42:39;;;;;;;8.10;7.30;;;;;;;;;;5117628;28;20558;-72
2021/08/13 03:45:07;;;;;;;10.53;8.23;;;;;;;;;;5117331;28;20467;-72
2021/08/13 03:47:34;;;;;;;9.30;6.63;;;;;;;;;;5117487;28;20526;-72
2021/08/13 03:50:01;;;;;;;7.30;6.60;;;;;;;;;;5117228;28;20534;-72
2021/08/13 03:52:30;;;;;;;8.87;7.60;;;;;;;;;;5117285;28;20439;-72
2021/08/13 03:54:57;;;;;;;7.73;6.50;;;;;;;;;;5114779;28;20472;-72
2021/08/13 03:57:24;;;;;;;10.43;7.97;;;;;;;;;;5113922;28;20435;-72
2021/08/13 03:59:51;;;;;;;8.73;7.03;;;;;;;;;;5114201;28;20474;-71
2021/08/13 04:02:18;;;;;;;7.87;7.07;;;;;;;;;;5113300;28;20998;-72
2021/08/13 04:04:45;;;;;;;10.40;7.57;;;;;;;;;;5114181;28;20447;-72
2021/08/13 04:07:12;;;;;;;7.47;6.70;;;;;;;;;;5113833;28;20486;-70
2021/08/13 04:09:41;;;;;;;9.57;7.10;;;;;;;;;;5114152;28;20440;-71
2021/08/13 04:12:08;;;;;;;8.43;7.53;;;;;;;;;;5113478;28;20452;-71
2021/08/13 04:14:36;;;;;;;10.20;7.60;;;;;;;;;;5114044;28;20443;-71
2021/08/13 04:17:03;;;;;;;10.63;7.43;;;;;;;;;;5113309;28;20538;-71
2021/08/13 04:19:30;;;;;;;14.70;7.47;;;;;;;;;;5113522;28;20444;-71
2021/08/13 04:21:57;;;;;;;9.50;6.80;;;;;;;;;;5113191;28;20526;-71
2021/08/13 04:24:24;;;;;;;7.90;7.10;;;;;;;;;;5113531;28;20439;-71
2021/08/13 04:26:53;;;;;;;9.90;7.70;;;;;;;;;;5114133;28;20870;-72
2021/08/13 04:29:20;;;;;;;7.63;6.80;;;;;;;;;;5113084;28;20803;-72
2021/08/13 04:31:48;;;;;;;8.53;7.40;;;;;;;;;;5113746;28;20522;-73
2021/08/13 04:34:15;;;;;;;9.60;7.80;;;;;;;;;;5112506;28;20485;-72
2021/08/13 04:36:42;;;;;;;10.07;7.70;;;;;;;;;;5113783;28;20976;-72
2021/08/13 04:39:10;;;;;;;14.20;8.53;;;;;;;;;;5113025;28;20443;-72
2021/08/13 04:41:37;;;;;;;9.00;7.20;;;;;;;;;;5113343;28;21064;-72
2021/08/13 04:44:06;;;;;;;10.80;7.80;;;;;;;;;;5112530;28;20526;-71
2021/08/13 04:46:33;;;;;;;12.73;8.67;;;;;;;;;;5113571;28;20440;-72
2021/08/13 04:49:01;;;;;;;9.30;8.40;;;;;;;;;;5112825;28;20447;-72
2021/08/13 04:51:28;;;;;;;10.07;8.80;;;;;;;;;;5113086;28;20451;-72
2021/08/13 04:53:56;;;;;;;12.90;8.00;;;;;;;;;;5113172;28;20442;-72
2021/08/13 04:56:23;;;;;;;13.70;7.73;;;;;;;;;;5112669;28;20458;-72
2021/08/13 04:58:52;;;;;;;9.60;8.17;;;;;;;;;;5113492;28;20517;-72
2021/08/13 05:01:20;;;;;;;8.70;7.23;;;;;;;;;;5112058;28;21011;-72
2021/08/13 05:03:47;;;;;;;9.20;7.70;;;;;;;;;;5113154;28;20444;-72
2021/08/13 05:06:18;;;;;;;8.67;7.77;;;;;;;;;;5112100;28;20448;-72
2021/08/13 05:08:45;;;;;;;9.97;7.50;;;;;;;;;;5112755;28;20444;-72
2021/08/13 05:11:13;;;;;;;9.33;8.43;;;;;;;;;;5112371;28;20443;-72
2021/08/13 05:13:40;;;;;;;9.87;7.80;;;;;;;;;;5112700;28;20444;-73
2021/08/13 05:16:07;;;;;;;9.63;8.63;;;;;;;;;;5112003;28;20448;-72
2021/08/13 05:18:36;;;;;;;10.33;7.70;;;;;;;;;;5112995;28;20530;-72
2021/08/13 05:21:06;;;;;;;8.87;7.90;;;;;;;;;;5112678;28;20479;-72
2021/08/13 05:23:33;;;;;;;10.70;8.30;;;;;;;;;;5112679;28;20490;-72
2021/08/13 05:26:00;;;;;;;8.30;7.50;;;;;;;;;;5112458;28;20527;-72
2021/08/13 05:28:28;;;;;;;9.87;8.60;;;;;;;;;;5112295;28;20440;-72
2021/08/13 05:30:55;;;;;;;8.30;7.30;;;;;;;;;;5112919;28;20455;-72
2021/08/13 05:33:22;;;;;;;11.20;6.77;;;;;;;;;;5111838;28;20447;-72
2021/08/13 05:35:51;;;;;;;9.30;7.40;;;;;;;;;;5112356;28;20449;-72
2021/08/13 05:38:18;;;;;;;8.30;7.50;;;;;;;;;;5112157;28;20440;-72
2021/08/13 05:40:45;;;;;;;10.03;8.60;;;;;;;;;;5112276;28;20979;-72
2021/08/13 05:43:12;;;;;;;11.17;8.10;;;;;;;;;;5111514;28;20483;-72
2021/08/13 05:45:39;;;;;;;8.23;7.43;;;;;;;;;;5112166;28;20443;-73
2021/08/13 05:48:07;;;;;;;12.47;9.50;;;;;;;;;;5111760;28;20534;-72
2021/08/13 05:50:34;;;;;;;10.27;9.27;;;;;;;;;;5112481;28;20525;-72
2021/08/13 05:53:03;;;;;;;10.23;9.23;;;;;;;;;;5112039;28;20534;-72
2021/08/13 05:55:30;;;;;;;9.23;7.73;;;;;;;;;;5111404;28;20450;-72
2021/08/13 05:57:57;;;;;;;9.40;7.80;;;;;;;;;;5112436;28;20446;-71
2021/08/13 06:00:24;;;;;;;12.43;8.30;;;;;;;;;;5111550;28;20471;-72
2021/08/13 06:02:52;;;;;;;9.00;8.10;;;;;;;;;;5111658;28;20574;-72
2021/08/13 06:05:19;;;;;;;8.90;8.00;;;;;;;;;;5111677;28;20440;-71
2021/08/13 06:07:46;;;;;;;8.53;7.63;;;;;;;;;;5112036;28;20440;-71
2021/08/13 06:10:15;;;;;;;9.23;7.10;;;;;;;;;;5111849;28;20440;-71
2021/08/13 06:12:42;;;;;;;8.57;7.70;;;;;;;;;;5112243;28;20535;-71
2021/08/13 06:15:10;;;;;;;11.40;7.60;;;;;;;;;;5114053;28;20443;-71
2021/08/13 06:17:37;;;;;;;9.13;7.50;;;;;;;;;;5110923;28;20444;-71
2021/08/13 06:20:05;;;;;;;12.57;8.60;;;;;;;;;;5111245;28;20947;-71
2021/08/13 06:22:32;;;;;;;12.33;7.50;;;;;;;;;;5112351;28;20471;-71
2021/08/13 06:24:59;;;;;;;9.83;7.93;;;;;;;;;;5112023;28;20444;-71
2021/08/13 06:27:28;;;;;;;12.27;7.73;;;;;;;;;;5110583;28;20440;-71
2021/08/13 06:29:55;;;;;;;10.10;7.27;;;;;;;;;;5111237;28;20440;-71
2021/08/13 06:32:22;;;;;;;12.20;7.87;;;;;;;;;;5110898;28;20447;-72
2021/08/13 06:34:49;;;;;;;14.90;8.63;;;;;;;;;;5111032;28;20467;-73
2021/08/13 06:37:17;;;;;;;8.90;7.60;;;;;;;;;;5110879;28;20858;-73
2021/08/13 06:39:44;;;;;;;8.90;7.47;;;;;;;;;;5111782;28;20444;-72
2021/08/13 06:42:11;;;;;;;8.63;7.50;;;;;;;;;;5110276;28;20907;-71
2021/08/13 06:44:39;;;;;;;14.83;13.30;;;;;;;;;;5110627;28;20531;-71
2021/08/13 06:47:07;;;;;;;9.73;8.57;;;;;;;;;;5111115;28;20439;-72
2021/08/13 06:49:34;;;;;;;9.33;8.43;;;;;;;;;;5111689;28;20458;-71
2021/08/13 06:52:02;;;;;;;8.10;7.30;;;;;;;;;;5107707;28;20809;-71
2021/08/13 06:54:29;;;;;;;12.70;8.20;;;;;;;;;;5109830;28;20448;-72
2021/08/13 06:56:58;;;;;;;14.00;7.83;;;;;;;;;;5111558;28;20432;-72
2021/08/13 06:59:25;;;;;;;9.77;8.03;;;;;;;;;;5102114;28;20933;-68
2021/08/13 07:01:54;;;;;;;9.67;8.60;;;;;;;;;;5101432;28;20478;-72
2021/08/13 07:04:21;;;;;;;10.90;8.20;;;;;;;;;;5110193;28;20436;-72
2021/08/13 07:06:48;;;;;;;9.43;8.47;;;;;;;;;;5111200;28;20454;-72
2021/08/13 07:09:15;;;;;;;9.73;8.50;;;;;;;;;;5109850;28;20444;-70
2021/08/13 07:11:42;;;;;;;11.30;8.23;;;;;;;;;;5111287;28;20439;-72
2021/08/13 07:14:10;;;;;;;13.80;8.50;;;;;;;;;;5109632;28;20813;-72
2021/08/13 07:16:37;;;;;;;9.80;7.83;;;;;;;;;;5090841;28;20920;-73
2021/08/13 07:19:05;;;;;;;9.67;8.30;;;;;;;;;;5099446;28;20539;-74
2021/08/13 07:21:33;;;;;;;11.60;7.03;;;;;;;;;;5108173;28;20559;-74
2021/08/13 07:24:00;;;;;;;10.23;7.57;;;;;;;;;;5092886;28;20436;-74
2021/08/13 07:26:27;;;;;;;8.27;7.47;;;;;;;;;;5092902;28;20830;-76
2021/08/13 07:28:54;;;;;;;7.70;6.90;;;;;;;;;;5110808;28;20990;-73
2021/08/13 07:31:21;;;;;;;8.43;7.50;;;;;;;;;;5113773;28;20978;-72
2021/08/13 07:33:48;;;;;;;10.23;6.70;;;;;;;;;;5114724;28;20854;-73
2021/08/13 07:36:17;;;;;;;10.50;7.13;;;;;;;;;;5114087;28;20439;-72
2021/08/13 07:38:44;;;;;;;7.60;6.83;;;;;;;;;;5114669;28;20990;-72
2021/08/13 07:41:12;;;;;;;10.70;8.07;;;;;;;;;;5114948;28;20522;-73
2021/08/13 07:43:39;;;;;;;8.13;6.77;;;;;;;;;;5114640;28;20914;-72
2021/08/13 07:46:06;;;;;;;8.50;6.90;;;;;;;;;;5114925;28;20869;-73
2021/08/13 07:48:34;;;;;;;9.73;7.70;;;;;;;;;;5113877;28;20490;-73
2021/08/13 07:51:01;;;;;;;8.50;7.60;;;;;;;;;;5113292;28;20943;-73
2021/08/13 07:53:29;;;;;;;9.20;8.30;;;;;;;;;;5113218;28;21035;-72
2021/08/13 07:55:56;;;;;;;10.97;8.67;;;;;;;;;;5114574;28;20530;-71
2021/08/13 07:58:24;;;;;;;9.00;8.10;;;;;;;;;;5113931;28;20483;-71
2021/08/13 08:00:52;;;;;;;10.80;8.43;;;;;;;;;;5114731;28;20523;-71
2021/08/13 08:03:19;;;;;;;13.40;8.70;;;;;;;;;;5113938;28;20482;-70
2021/08/13 08:05:47;;;;;;;9.53;8.57;;;;;;;;;;5114568;28;20467;-71
2021/08/13 08:08:14;;;;;;;10.40;9.30;;;;;;;;;;5113481;28;20445;-70
2021/08/13 08:10:46;;;;;;;8.90;8.00;;;;;;;;;;5113727;28;20535;-75
2021/08/13 08:13:13;;;;;;;11.60;8.83;;;;;;;;;;5113795;28;20447;-77
2021/08/13 08:15:40;;;;;;;8.43;7.63;;;;;;;;;;5113980;28;20632;-72
2021/08/13 08:18:07;;;;;;;11.37;8.40;;;;;;;;;;5113951;28;20508;-72
2021/08/13 08:20:35;;;;;;;11.33;9.17;;;;;;;;;;5113077;28;20479;-74
2021/08/13 08:23:02;;;;;;;11.87;8.90;;;;;;;;;;5113069;28;20559;-76
2021/08/13 08:25:30;;;;;;;11.70;9.70;;;;;;;;;;5112573;28;20446;-73
2021/08/13 08:27:59;;;;;;;12.87;9.37;;;;;;;;;;5114064;28;20439;-73
2021/08/13 08:30:26;;;;;;;9.77;8.53;;;;;;;;;;5113541;28;20447;-73
2021/08/13 08:32:53;;;;;;;11.03;10.00;;;;;;;;;;5113468;28;20943;-73
2021/08/13 08:35:20;;;;;;;17.53;9.57;;;;;;;;;;5112515;28;21023;-75
2021/08/13 08:37:54;;;;;;;9.90;8.80;;;;;;;;;;5113897;28;20523;-73
2021/08/13 08:40:24;;;;;;;11.13;8.93;;;;;;;;;;5112335;28;20968;-72
2021/08/13 08:42:51;;;;;;;12.60;9.63;;;;;;;;;;5113077;28;20474;-72
2021/08/13 08:45:20;;;;;;;9.07;8.17;;;;;;;;;;5113208;28;20525;-72
2021/08/13 08:47:48;;;;;;;10.97;8.50;;;;;;;;;;5113533;28;20922;-72
2021/08/13 08:50:15;;;;;;;8.67;7.83;;;;;;;;;;5113691;28;20542;-73
2021/08/13 08:52:42;;;;;;;12.67;9.60;;;;;;;;;;5113688;28;20476;-73
2021/08/13 08:55:10;;;;;;;9.57;8.60;;;;;;;;;;5112598;28;20449;-72
2021/08/13 08:57:39;;;;;;;9.73;8.43;;;;;;;;;;5112224;28;20522;-72
2021/08/13 09:00:07;;;;;;;9.50;8.07;;;;;;;;;;5113267;28;20435;-72
2021/08/13 09:02:36;;;;;;;8.90;8.07;;;;;;;;;;5112033;28;20479;-73
2021/08/13 09:05:03;;;;;;;9.40;8.50;;;;;;;;;;5112373;28;20439;-73
2021/08/13 09:07:30;;;;;;;13.80;8.10;;;;;;;;;;5111701;28;20472;-73
2021/08/13 09:10:00;;;;;;;11.13;8.60;;;;;;;;;;5113124;28;20443;-73
2021/08/13 09:12:27;;;;;;;8.10;7.30;;;;;;;;;;5111924;28;20467;-72
2021/08/13 09:14:54;;;;;;;8.17;7.37;;;;;;;;;;5112796;28;20475;-73
2021/08/13 09:17:28;;;;;;;9.47;7.50;;;;;;;;;;5108029;28;20486;-72
2021/08/13 09:19:57;;;;;;;10.70;7.77;;;;;;;;;;5095664;28;20454;-75
2021/08/13 09:22:25;;;;;;;9.53;7.57;;;;;;;;;;5111176;28;20442;-74
2021/08/13 09:24:53;;;;;;;9.53;8.23;;;;;;;;;;5112723;28;20463;-74
2021/08/13 09:27:22;;;;;;;8.97;8.07;;;;;;;;;;5111616;28;20448;-72
2021/08/13 09:30:08;;;;;;;9.67;8.60;;;;;;;;;;5112653;28;20518;-73
2021/08/13 09:32:35;;;;;;;10.63;7.80;;;;;;;;;;5111140;28;20447;-74
2021/08/13 09:35:04;;;;;;;10.40;9.00;;;;;;;;;;5112611;28;20435;-73
2021/08/13 09:37:31;;;;;;;8.70;7.90;;;;;;;;;;5111611;28;20478;-73
2021/08/13 09:39:59;;;;;;;10.60;7.80;;;;;;;;;;5112468;28;20443;-73
2021/08/13 09:42:36;;;;;;;9.50;7.93;;;;;;;;;;5112409;28;20439;-73
2021/08/13 09:45:05;;;;;;;9.43;7.37;;;;;;;;;;5112368;28;20441;-74
2021/08/13 09:47:42;;;;;;;12.83;8.37;;;;;;;;;;5112122;28;20522;-73
2021/08/13 09:50:12;;;;;;;9.60;7.77;;;;;;;;;;5112586;28;20482;-73
2021/08/13 09:52:40;;;;;;;9.00;7.27;;;;;;;;;;5110570;28;20694;-73
2021/08/13 09:55:09;;;;;;;8.00;7.20;;;;;;;;;;5112498;28;20474;-73
2021/08/13 09:57:43;;;;;;;8.47;7.57;;;;;;;;;;5111595;28;20442;-74
2021/08/13 10:00:10;;;;;;;7.97;7.17;;;;;;;;;;5112440;28;20443;-74
2021/08/13 10:02:39;;;;;;;12.03;8.70;;;;;;;;;;5111688;28;20526;-73
2021/08/13 10:05:21;;;;;;;8.13;7.33;;;;;;;;;;5112252;28;20443;-73
2021/08/13 10:07:49;;;;;;;9.33;7.50;;;;;;;;;;5112613;28;20431;-73
2021/08/13 10:10:17;;;;;;;11.93;7.53;;;;;;;;;;5112342;28;20446;-73
2021/08/13 10:12:44;;;;;;;9.43;6.60;;;;;;;;;;5111616;28;20465;-73
2021/08/13 10:15:13;;;;;;;8.43;7.63;;;;;;;;;;5112118;28;20442;-74
2021/08/13 10:17:40;;;;;;;9.87;7.53;;;;;;;;;;5111193;28;20443;-73
2021/08/13 10:20:08;;;;;;;9.30;8.07;;;;;;;;;;5111688;28;20454;-74
2021/08/13 10:22:37;;;;;;;12.30;8.70;;;;;;;;;;5111482;28;20423;-73
2021/08/13 10:25:04;;;;;;;8.70;7.43;;;;;;;;;;5111904;28;20581;-74
2021/08/13 10:27:32;;;;;;;10.37;8.33;;;;;;;;;;5111607;28;20538;-74
2021/08/13 10:30:00;;;;;;;11.03;7.10;;;;;;;;;;5111744;28;20443;-74
2021/08/13 10:32:27;;;;;;;8.73;7.93;;;;;;;;;;5111245;28;20471;-73
2021/08/13 10:34:56;;;;;;;12.13;9.00;;;;;;;;;;5111862;28;20526;-74
2021/08/13 10:37:25;;;;;;;11.30;7.57;;;;;;;;;;5111285;28;20437;-72
2021/08/13 10:39:56;;;;;;;9.50;8.60;;;;;;;;;;5112032;28;20522;-73
2021/08/13 10:42:25;;;;;;;9.00;8.07;;;;;;;;;;5111491;28;20450;-72
2021/08/13 10:44:54;;;;;;;9.10;7.97;;;;;;;;;;5111379;28;20569;-73
2021/08/13 10:47:23;;;;;;;12.27;8.03;;;;;;;;;;5111507;28;21010;-73
2021/08/13 10:49:52;;;;;;;10.80;9.30;;;;;;;;;;5111340;28;20538;-72
2021/08/13 10:52:32;;;;;;;9.97;9.07;;;;;;;;;;5111772;28;20548;-72
2021/08/13 10:55:00;;;;;;;9.60;8.67;;;;;;;;;;5111432;28;20441;-73
2021/08/13 10:57:43;;;;;;;12.50;8.57;;;;;;;;;;5111175;28;20442;-73
2021/08/13 11:00:11;;;;;;;9.30;8.50;;;32.60;18.10;;;;;;5111261;28;20471;-74
2021/08/13 11:02:38;;;;;;;9.10;7.90;;;28.90;99.90;;;;;;5110902;28;20958;-73
2021/08/13 11:05:06;;;;;;;10.50;9.30;;;28.80;99.90;;;;;;5117165;28;20486;-73
2021/08/13 11:08:00;;;;;;;8.90;8.00;;;29.00;99.90;;;;;;5115097;28;20968;-73
2021/08/13 11:10:54;;;;;;;10.83;8.53;;;;;;;;;;5115065;28;20465;-73
2021/08/13 11:13:23;;;;;;;8.70;8.00;;;;;;;;;;5078980;28;20896;-74
2021/08/13 11:15:51;;;;;;;10.10;8.23;;;;;;;;;;5115617;28;20446;-73
2021/08/13 11:18:32;;;;;;;9.47;8.67;;;;;;;;;;5115329;28;20197;-73
2021/08/13 11:20:59;;;;;;;10.90;8.23;;;;;;;;;;5115152;28;20489;-74
2021/08/13 11:23:27;;;;;;;12.10;8.70;;;;;;;;;;5114500;28;20475;-73
2021/08/13 11:25:55;;;;;;;9.03;7.40;;;;;;;;;;5115356;28;20540;-72
2021/08/13 11:28:24;;;;;;;9.97;9.07;;;29.20;99.90;;;;;;5114996;28;20197;-73
2021/08/13 11:30:53;;;;;;;9.13;8.23;;;;;;;;;;5115298;28;20240;-73
2021/08/13 11:33:39;;;;;;;9.57;8.00;;;;;;;;;;5115416;28;20613;-73
2021/08/13 11:36:07;;;;;;;10.67;8.60;;;;;;;;;;5115095;28;20587;-73
2021/08/13 11:38:52;;;;;;;9.07;8.17;;;;;;;;;;5114463;28;20554;-72
2021/08/13 11:41:26;;;;;;;9.97;8.97;;;;;;;;;;5114800;28;20203;-73
2021/08/13 11:43:55;;;;;;;8.77;7.87;;;;;;;;;;5114815;28;20260;-74
2021/08/13 11:46:30;;;;;;;8.63;7.87;;;;;;;;;;5114999;28;20193;-73
2021/08/13 11:48:58;;;;;;;8.60;7.40;;;;;;;;;;5114866;28;20253;-74
2021/08/13 11:51:26;;;;;;;10.13;9.20;;;;;;;;;;5114529;28;20662;-73
2021/08/13 11:53:53;;;;;;;9.70;8.23;;;;;;;;;;5114467;28;20227;-74
2021/08/13 11:56:27;;;;;;;7.93;7.07;;;;;;;;;;5114794;28;20224;-73
2021/08/13 11:59:01;;;;;;;8.33;7.53;;;30.30;99.90;;;;;;5114431;28;20692;-73
2021/08/13 12:01:27;;;;;;;9.13;7.63;;;30.00;99.90;;;;;;5114335;28;20302;-73
2021/08/13 12:03:55;;;;;;;10.13;7.90;;;;;;;;;;5114357;28;20851;-73
2021/08/13 12:06:22;;;;;;;10.93;7.67;;;;;;;;;;5114309;28;20205;-73
2021/08/13 12:08:50;;;;;;;8.88;7.97;;;;;;;;;;5114041;28;20672;-73
2021/08/13 12:11:23;;;;;;;8.18;7.38;;;;;;;;;;5114584;28;20236;-73
2021/08/13 12:13:50;;;;;;;9.90;8.18;;;;;;;;;;5113682;28;20250;-73
2021/08/13 12:16:19;;;;;;;13.00;8.50;;;;;;;;;;5113294;28;20224;-73
2021/08/13 12:18:47;;;;;;;8.05;7.25;;;;;;;;;;5113695;28;20193;-73
2021/08/13 12:21:15;;;;;;;10.27;7.70;;;;;;;;;;5114316;28;20716;-73
2021/08/13 12:23:54;;;;;;;9.70;7.85;;;;;;;;;;5113416;28;20681;-73
2021/08/13 12:26:25;;;;;;;8.40;7.60;;;;;;;;;;5113958;28;20193;-73
2021/08/13 12:28:52;;;;;;;9.47;8.50;;;;;;;;;;5113721;28;20185;-72
2021/08/13 12:31:21;;;;;;;9.13;8.25;;;;;;;;;;5113942;28;20288;-73
2021/08/13 12:33:55;;;;;;;10.07;7.63;;;;;;;;;;5113515;28;20618;-72
2021/08/13 12:36:22;;;;;;;9.40;7.75;;;;;;;;;;5114115;28;20189;-72
2021/08/13 12:38:54;;;;;;;11.05;7.22;;;;;;;;;;5113339;28;20558;-73
2021/08/13 12:41:22;;;;;;;8.43;7.68;;;;;;;;;;5113925;28;20186;-73
2021/08/13 12:43:49;;;;;;;8.40;7.57;;;;;;;;;;5112925;28;20228;-73
2021/08/13 12:46:17;;;;;;;8.30;7.45;;;;;;;;;;5113835;28;20201;-73
2021/08/13 12:48:46;;;;;;;8.05;7.20;;;;;;;;;;5113391;28;20246;-73
2021/08/13 12:51:25;;;;;;;11.63;7.68;;;;;;;;;;5113775;28;20293;-73
2021/08/13 12:53:52;;;;;;;9.80;8.45;;;;;;;;;;5113125;28;20611;-73
2021/08/13 12:56:20;;;;;;;8.48;7.70;;;;;;;;;;5113473;28;20272;-74
2021/08/13 12:58:48;;;;;;;8.57;7.78;;;;;;;;;;5112837;28;20197;-74
2021/08/13 13:01:27;;;;;;;8.55;7.63;;;;;;;;;;5113664;28;20238;-73
2021/08/13 13:04:12;;;;;;;9.18;8.00;;;;;;;;;;5112914;28;20205;-74
2021/08/13 13:06:42;;;;;;;10.25;7.88;;;;;;;;;;5113003;28;20283;-73
2021/08/13 13:09:09;;;;;;;9.88;8.18;;;;;;;;;;5113492;28;20189;-75
2021/08/13 13:11:36;;;;;;;8.77;7.82;;;;;;;;;;5112806;28;20301;-74
2021/08/13 13:14:04;;;;;;;7.80;7.00;;;;;;;;;;5113433;28;20278;-74
2021/08/13 13:16:32;;;;;;;7.90;7.10;;;;;;;;;;5112853;28;20197;-72
2021/08/13 13:19:19;;;;;;;8.25;7.45;;;;;;;;;;5113096;28;20200;-74
2021/08/13 13:21:48;;;;;;;7.82;6.95;;;;;;;;;;5112271;28;20279;-74
2021/08/13 13:24:19;;;;;;;8.65;7.80;;;;;;;;;;5113078;28;20650;-74
2021/08/13 13:27:00;;;;;;;7.93;7.00;;;;;;;;;;5111968;28;20224;-74
2021/08/13 13:29:42;;;;;;;7.82;7.13;;;;;;;;;;5109278;28;20648;-74
2021/08/13 13:32:16;;;;;;;9.60;6.80;;;;;;;;;;5110502;28;20200;-75
2021/08/13 13:34:55;;;;;;;8.57;6.55;;;;;;;;;;5109767;28;20193;-74
2021/08/13 13:37:23;;;;;;;12.75;6.80;;;;;;;;;;5110150;28;20197;-74
2021/08/13 13:39:50;;;;;;;7.00;6.30;;;;;;;;;;5109670;28;20197;-73
2021/08/13 13:42:20;;;;;;;8.43;7.60;;;;;;;;;;5110029;28;20650;-75
2021/08/13 13:44:48;;;;;;;10.57;7.10;;;;;;;;;;5109602;28;20217;-74
2021/08/13 13:47:15;;;;;;;7.20;6.43;;;;;;;;;;5108447;28;20610;-74
2021/08/13 13:49:43;;;;;;;9.30;6.90;;;;;;;;;;5109420;28;20203;-73
2021/08/13 13:52:10;;;;;;;7.75;6.65;;;;;;;;;;5110350;28;20193;-73
2021/08/13 13:54:38;;;;;;;7.43;6.72;;;;;;;;;;5109438;28;20597;-73
2021/08/13 13:57:06;;;;;;;6.88;5.68;;;;;;;;;;5109712;28;20201;-73
2021/08/13 13:59:33;;;;;;;6.88;6.18;;;;;;;;;;5109905;28;20197;-72
2021/08/13 14:02:01;;;;;;;9.23;6.38;;;;;;;;;;5109942;28;20303;-73
2021/08/13 14:04:28;;;;;;;6.55;5.78;;;;;;;;;;5109466;28;20225;-72
2021/08/13 14:06:55;;;;;;;9.27;7.00;;;;;;;;;;5108319;28;20295;-73
2021/08/13 14:09:23;;;;;;;7.15;6.45;;;;;;;;;;5109241;28;20305;-73
2021/08/13 14:11:51;;;;;;;6.53;5.80;;;;;;;;;;5108651;28;20197;-75
2021/08/13 14:14:19;;;;;;;7.05;6.45;;;;;;;;;;5108640;28;20193;-73
2021/08/13 14:16:46;;;;;;;7.18;6.35;;;;;;;;;;5106869;28;20659;-71
2021/08/13 14:19:13;;;;;;;7.22;6.60;;;;;;;;;;5109124;28;20212;-72
2021/08/13 14:21:41;;;;;;;6.82;5.43;;;;;;;;;;5107818;28;20221;-73
2021/08/13 14:24:08;;;;;;;7.22;6.50;;;;;;;;;;5109525;28;20227;-73
2021/08/13 14:26:36;;;;;;;8.57;6.15;;;;;;;;;;5109290;28;20291;-73
2021/08/13 14:29:04;;;;;;;6.90;6.30;;;30.20;99.90;;;;;;5108709;28;20284;-73
2021/08/13 14:31:31;;;;;;;6.07;5.47;;;33.70;99.90;;;;;;5109265;28;20199;-74
2021/08/13 14:33:58;;;;;;;7.07;6.10;;;;;;;;;;5108798;28;20205;-74
2021/08/13 14:36:26;;;;;;;7.47;5.85;;;;;;;;;;5107849;28;20213;-74
2021/08/13 14:38:53;;;;;;;7.78;6.82;;;;;;;;;;5107685;28;20182;-73
2021/08/13 14:41:20;;;;;;;8.98;6.53;;;;;;;;;;5108153;28;20276;-73
2021/08/13 14:43:48;;;;;;;7.45;5.90;;;;;;;;;;5108038;28;20570;-72